Latest Weather Observations for Cape Sorell

IDT60801

Issued at 3:31 pm EST Thursday 26 May 2022 (issued every 10 minutes, with the page automatically refreshed every 10 minutes)

About weather observations | Map of weather stations | Latest weather observations for TAS | Other Formats
Station Details ID: 097000 Name: CAPE SORELL Lat: -42.20 Lon: 145.17 Height: 19.3 m
Data from the previous 72 hours. | See also: Recent months at Cape Sorell
Date/Time
EST
Temp
°C
App
Temp
°C
Dew
Point
°C
Rel
Hum
%
Delta-T
°C
Wind Press
QNH
hPa
Press
MSL
hPa
Rain since
9am
mm
Dir  Spd
km/h
Gust
km/h
Spd
kts
Gust
kts
26/03:30pm 13.6 10.6 12.5 93 0.6 NE 20 26 11 14 1011.5 1011.6 4.2
26/03:00pm 13.6 11.2 12.5 93 0.6 NNE 17 20 9 11 1011.7 1011.8 3.6
26/02:30pm 13.7 12.8 12.6 93 0.6 NNE 9 13 5 7 1012.0 1012.1 2.8
26/02:00pm 13.7 10.2 12.3 91 0.8 NNE 22 28 12 15 1012.3 1012.4 2.6
26/01:30pm 14.0 10.6 12.4 90 0.9 N 22 28 12 15 1012.4 1012.5 1.8
26/01:00pm 14.1 11.0 12.3 89 1.0 N 20 24 11 13 1012.9 1013.0 1.8
26/12:30pm 14.2 9.0 11.7 85 1.3 N 30 35 16 19 1013.3 1013.4 1.4
26/12:00pm 14.5 9.2 11.1 80 1.8 N 30 33 16 18 1013.6 1013.7 0.4
26/11:30am 15.1 11.6 10.1 72 2.6 NNE 19 24 10 13 1013.7 1013.8 0.0
26/11:00am 15.4 11.3 10.0 70 2.8 NE 22 28 12 15 1014.1 1014.2 0.0
26/10:30am 14.5 11.8 8.9 69 2.8 NE 13 19 7 10 1014.4 1014.5 0.0
26/10:00am 14.6 12.3 9.0 69 2.9 NE 11 15 6 8 1014.6 1014.7 0.0
26/09:30am 14.1 11.3 8.7 70 2.7 NNE 13 15 7 8 1014.9 1015.0 0.0
26/09:00am 14.4 11.9 8.4 67 3.0 NE 11 13 6 7 1015.2 1015.3 0.0
26/08:30am 14.0 11.5 8.0 67 3.0 NE 11 15 6 8 1015.3 1015.4 0.0
26/08:00am 13.9 10.6 8.1 68 2.9 NE 15 20 8 11 1015.2 1015.3 0.0
26/07:30am 14.1 10.5 8.5 69 2.8 NE 17 20 9 11 1015.3 1015.4 0.0
26/07:00am 14.4 10.2 8.4 67 3.0 NNE 20 30 11 16 1015.3 1015.4 0.0
26/06:30am 13.6 11.7 7.4 66 3.0 NNE 7 15 4 8 1015.6 1015.7 0.0
26/06:00am 12.7 11.1 6.3 65 3.0 N 4 6 2 3 1015.8 1015.8 0.0
26/05:30am 13.5 8.4 6.1 61 3.5 NE 22 32 12 17 1015.4 1015.5 0.0
26/05:00am 13.6 8.1 6.0 60 3.6 NE 24 33 13 18 1015.1 1015.2 0.0
26/04:30am 13.7 7.7 5.3 57 3.9 NE 26 35 14 19 1015.2 1015.3 0.0
26/04:00am 13.4 6.9 4.8 56 4.0 NE 28 39 15 21 1015.6 1015.7 0.0
26/03:30am 12.8 7.2 5.2 60 3.5 NE 24 30 13 16 1016.0 1016.0 0.0
26/03:00am 12.8 6.9 5.7 62 3.3 NE 26 33 14 18 1016.4 1016.4 0.0
26/02:30am 13.2 7.0 6.3 63 3.3 NE 28 37 15 20 1016.3 1016.3 0.0
26/02:00am 13.1 7.0 6.5 64 3.2 NE 28 39 15 21 1016.3 1016.3 0.0
26/01:30am 13.2 6.3 6.3 63 3.3 NE 32 39 17 21 1016.7 1016.7 0.0
26/01:00am 13.0 8.0 6.4 64 3.1 NE 22 33 12 18 1017.1 1017.1 0.0
26/12:30am 13.0 8.6 6.4 64 3.1 NE 19 28 10 15 1017.4 1017.4 0.0
26/12:00am 12.5 9.1 5.9 64 3.1 NE 13 19 7 10 1017.7 1017.7 0.0
 
Date/Time
EST
Temp
°C
App
Temp
°C
Dew
Point
°C
Rel
Hum
%
Delta-T
°C
Wind Press
QNH
hPa
Press
MSL
hPa
Rain since
9am
mm
Dir  Spd
km/h
Gust
km/h
Spd
kts
Gust
kts
25/11:30pm 12.9 9.7 5.3 60 3.5 NE 11 20 6 11 1018.1 1018.1 0.0
25/11:00pm 12.8 10.7 5.9 63 3.2 NNE 6 9 3 5 1018.4 1018.4 0.0
25/10:30pm 12.8 9.7 5.7 62 3.3 NE 11 17 6 9 1018.4 1018.4 0.0
25/10:00pm 13.5 9.0 6.1 61 3.5 NE 19 24 10 13 1018.6 1018.6 0.0
25/09:30pm 13.3 8.7 5.7 60 3.6 NE 19 26 10 14 1018.6 1018.6 0.0
25/09:00pm 12.7 8.5 5.8 63 3.2 NE 17 22 9 12 1018.8 1018.8 0.0
25/08:30pm 12.5 8.7 5.7 63 3.2 NE 15 22 8 12 1019.2 1019.2 0.0
25/08:00pm 12.7 8.1 5.8 63 3.2 ENE 19 26 10 14 1019.2 1019.2 0.0
25/07:30pm 13.6 8.4 5.5 58 3.8 NE 22 28 12 15 1019.3 1019.3 0.0
25/07:00pm 13.4 9.6 6.0 61 3.5 ENE 15 30 8 16 1019.6 1019.6 0.0
25/06:30pm 13.2 9.8 6.1 62 3.4 ENE 13 19 7 10 1019.9 1019.9 0.0
25/06:00pm 13.6 9.5 6.2 61 3.5 NE 17 22 9 12 1020.0 1020.0 0.0
25/05:30pm 13.9 10.0 7.2 64 3.3 ENE 17 20 9 11 1020.2 1020.2 0.0
25/05:00pm 14.8 11.0 7.4 61 3.6 NE 17 24 9 13 1020.3 1020.3 0.0
25/04:30pm 15.5 9.1 8.7 64 3.5 NE 32 39 17 21 1020.3 1020.3 0.0
25/04:00pm 15.9 9.0 7.4 57 4.2 NNE 33 39 18 21 1020.4 1020.4 0.0
25/03:30pm 16.0 8.3 7.2 56 4.4 NNE 37 46 20 25 1020.3 1020.3 0.0
25/03:00pm 16.1 8.5 7.6 57 4.2 NNE 37 44 20 24 1020.4 1020.4 0.0
25/02:30pm 16.1 7.3 7.1 55 4.5 NNE 43 50 23 27 1020.6 1020.6 0.0
25/02:00pm 16.0 8.1 7.7 58 4.1 NNE 39 48 21 26 1021.0 1021.0 0.0
25/01:30pm 15.9 7.6 7.9 59 4.0 NNE 41 50 22 27 1021.3 1021.3 0.0
25/01:00pm 15.8 8.4 8.5 62 3.7 NNE 37 43 20 23 1021.8 1021.8 0.0
25/12:30pm 15.9 8.5 8.4 61 3.8 NNE 37 43 20 23 1022.1 1022.1 0.0
25/12:00pm 15.5 10.8 7.8 60 3.8 NE 22 32 12 17 1022.5 1022.5 0.0
25/11:30am 15.2 11.3 7.3 59 3.9 ENE 17 22 9 12 1023.1 1023.1 0.0
25/11:00am 15.1 11.3 7.4 60 3.8 ENE 17 22 9 12 1023.5 1023.5 0.0
25/10:30am 14.2 9.8 7.3 63 3.4 ENE 20 28 11 15 1023.5 1023.5 0.0
25/10:00am 12.9 7.9 6.5 65 3.0 ENE 22 30 12 16 1023.5 1023.5 0.0
25/09:30am 12.0 6.9 5.9 66 2.9 ENE 22 28 12 15 1023.7 1023.7 0.0
25/09:00am 11.0 6.3 6.0 71 2.3 ENE 20 28 11 15 1023.8 1023.8 0.2
25/08:30am 10.3 5.5 5.5 72 2.2 ENE 20 26 11 14 1023.9 1023.9 0.2
25/08:00am 8.9 3.7 5.3 78 1.6 ENE 22 28 12 15 1023.8 1023.8 0.2
25/07:30am 8.3 3.0 5.2 81 1.4 ENE 22 26 12 14 1023.9 1023.9 0.2
25/07:00am 8.3 2.7 5.6 83 1.2 ENE 24 30 13 16 1023.8 1023.8 0.2
25/06:30am 8.4 2.9 5.7 83 1.2 E 24 28 13 15 1023.8 1023.8 0.2
25/06:00am 8.4 2.8 5.5 82 1.3 ENE 24 28 13 15 1023.9 1023.9 0.2
25/05:30am 8.3 2.8 5.8 84 1.1 E 24 30 13 16 1023.9 1023.9 0.2
25/05:00am 8.4 2.9 5.9 84 1.1 E 24 30 13 16 1023.9 1023.9 0.2
25/04:30am 8.6 3.1 5.7 82 1.3 E 24 30 13 16 1024.1 1024.1 0.2
25/04:00am 8.5 3.1 6.3 86 1.0 E 24 30 13 16 1024.3 1024.3 0.2
25/03:30am 8.4 3.0 6.4 87 0.9 E 24 28 13 15 1024.6 1024.6 0.2
25/03:00am 8.3 3.3 6.4 88 0.9 E 22 28 12 15 1025.0 1025.0 0.2
25/02:30am 8.6 3.2 6.4 86 1.0 E 24 28 13 15 1025.5 1025.5 0.2
25/02:00am 8.6 3.3 5.2 79 1.5 ENE 22 26 12 14 1025.8 1025.8 0.2
25/01:30am 9.2 4.0 5.4 77 1.7 ENE 22 28 12 15 1026.0 1026.0 0.2
25/01:00am 9.2 4.6 5.8 79 1.5 ENE 19 24 10 13 1026.4 1026.4 0.2
25/12:30am 9.4 4.9 5.9 79 1.6 ENE 19 24 10 13 1026.8 1026.8 0.2
25/12:00am 9.7 5.2 6.1 78 1.6 ENE 19 24 10 13 1027.0 1027.0 0.2
 
Date/Time
EST
Temp
°C
App
Temp
°C
Dew
Point
°C
Rel
Hum
%
Delta-T
°C
Wind Press
QNH
hPa
Press
MSL
hPa
Rain since
9am
mm
Dir  Spd
km/h
Gust
km/h
Spd
kts
Gust
kts
24/11:30pm 9.8 5.2 6.3 79 1.6 ENE 20 26 11 14 1027.0 1027.0 0.2
24/11:00pm 9.9 5.3 6.3 78 1.7 ENE 20 26 11 14 1027.0 1027.0 0.2
24/10:30pm 10.1 5.8 7.0 81 1.5 NE 19 22 10 12 1027.4 1027.4 0.2
24/10:00pm 9.9 5.4 7.0 82 1.4 ENE 20 24 11 13 1027.5 1027.5 0.2
24/09:30pm 9.8 5.9 6.9 82 1.4 ENE 17 22 9 12 1027.7 1027.7 0.2
24/09:00pm 10.5 7.5 7.6 82 1.4 ENE 13 19 7 10 1027.8 1027.8 0.2
24/08:30pm 10.3 7.1 7.0 80 1.6 ENE 13 17 7 9 1027.8 1027.8 0.2
24/08:00pm 11.2 8.1 7.3 77 1.9 NE 13 17 7 9 1027.8 1027.8 0.2
24/07:30pm 10.9 7.0 7.0 77 1.9 ENE 17 19 9 10 1027.7 1027.7 0.2
24/07:00pm 11.3 6.7 6.4 72 2.3 E 20 24 11 13 1027.4 1027.4 0.2
24/06:30pm 11.6 7.2 6.5 71 2.4 ESE 19 24 10 13 1027.1 1027.1 0.2
24/06:00pm 11.7 7.3 6.4 70 2.5 ESE 19 20 10 11 1027.0 1027.0 0.2
24/05:30pm 11.6 7.2 6.5 71 2.4 ESE 19 20 10 11 1026.9 1026.9 0.2
24/05:00pm 11.5 7.4 6.0 69 2.6 ESE 17 19 9 10 1026.7 1026.7 0.2
24/04:30pm 12.1 8.8 6.4 68 2.7 ESE 13 17 7 9 1026.7 1026.7 0.2
24/04:00pm 13.0 9.4 6.6 65 3.0 ESE 15 19 8 10 1026.5 1026.5 0.2
24/03:30pm 13.4 10.2 6.7 64 3.2 ESE 13 20 7 11 1026.6 1026.6 0.2
24/03:00pm 14.3 10.8 7.4 63 3.4 ESE 15 20 8 11 1026.7 1026.7 0.2
24/02:30pm 14.6 11.5 7.4 62 3.5 ESE 13 17 7 9 1027.0 1027.0 0.2
24/02:00pm 14.3 10.8 7.4 63 3.4 ESE 15 19 8 10 1027.2 1027.2 0.2
24/01:30pm 14.3 11.3 7.8 65 3.2 ESE 13 17 7 9 1027.5 1027.5 0.0
24/01:00pm 13.7 10.7 7.5 66 3.0 ESE 13 17 7 9 1028.1 1028.1 0.0
24/12:30pm 13.5 10.0 7.3 66 3.0 ESE 15 20 8 11 1028.6 1028.6 0.0
24/12:00pm 12.4 8.1 7.1 70 2.5 E 19 22 10 12 1029.1 1029.1 0.0
24/11:30am 11.8 7.3 7.1 73 2.3 E 20 24 11 13 1029.6 1029.6 0.0
24/11:00am 10.5 6.2 6.8 78 1.7 E 19 22 10 12 1030.2 1030.2 0.0
24/10:30am 10.1 6.1 6.8 80 1.6 E 17 22 9 12 1030.5 1030.5 0.0
24/10:00am 9.9 5.6 7.0 82 1.4 ENE 19 24 10 13 1030.4 1030.4 0.0
24/09:30am 9.6 5.7 7.0 84 1.2 E 17 20 9 11 1030.2 1030.2 0.0
24/09:00am 9.6 6.1 7.4 86 1.0 ENE 15 20 8 11 1030.2 1030.2 0.0
24/08:30am 9.1 5.3 7.5 90 0.8 ENE 17 20 9 11 1030.3 1030.3 0.0
24/08:00am 8.1 4.2 6.9 92 0.6 E 17 20 9 11 1030.1 1030.1 0.0
24/07:30am 7.5 3.8 6.1 91 0.6 E 15 17 8 9 1030.1 1030.1 0.0
24/07:00am 7.9 3.8 6.4 90 0.7 E 17 20 9 11 1030.0 1030.0 0.0
24/06:30am 7.6 3.8 5.9 89 0.8 E 15 19 8 10 1029.8 1029.8 0.0
24/06:00am 7.8 3.6 5.9 88 0.9 E 17 20 9 11 1029.8 1029.8 0.0
24/05:30am 8.4 4.3 6.4 87 0.9 E 17 22 9 12 1029.6 1029.6 0.0
24/05:00am 8.9 5.4 7.0 88 0.9 E 15 19 8 10 1029.6 1029.6 0.0
24/04:30am 9.0 5.5 7.0 87 0.9 E 15 19 8 10 1029.4 1029.4 0.0
24/04:00am 9.1 5.5 6.9 86 1.0 E 15 20 8 11 1029.5 1029.5 0.0
24/03:30am 8.7 4.3 6.5 86 1.0 ENE 19 22 10 12 1029.6 1029.6 0.0
24/03:00am 9.0 5.5 7.0 87 0.9 E 15 19 8 10 1029.9 1029.9 0.0
24/02:30am 8.7 4.7 6.5 86 1.0 E 17 19 9 10 1029.9 1029.9 0.0
24/02:00am 8.3 4.6 6.1 86 1.0 ENE 15 19 8 10 1030.0 1030.0 0.0
24/01:30am 8.6 4.5 6.4 86 1.0 ENE 17 20 9 11 1030.2 1030.2 0.0
24/01:00am 8.2 4.5 6.3 88 0.9 ENE 15 19 8 10 1030.3 1030.3 0.0
24/12:30am 8.8 4.9 6.9 88 0.9 ENE 17 19 9 10 1030.4 1030.4 0.0
24/12:00am 9.2 6.2 7.6 90 0.8 ENE 13 15 7 8 1030.6 1030.6 0.0
 
Date/Time
EST
Temp
°C
App
Temp
°C
Dew
Point
°C
Rel
Hum
%
Delta-T
°C
Wind Press
QNH
hPa
Press
MSL
hPa
Rain since
9am
mm
Dir  Spd
km/h
Gust
km/h
Spd
kts
Gust
kts
23/11:30pm 9.9 7.4 8.3 90 0.8 ENE 11 15 6 8 1030.6 1030.6 0.0
23/11:00pm 9.8 6.8 7.9 88 0.9 E 13 17 7 9 1030.6 1030.6 0.0
23/10:30pm 10.0 7.0 7.8 86 1.1 E 13 17 7 9 1030.7 1030.7 0.0
23/10:00pm 10.2 6.7 7.4 83 1.3 E 15 17 8 9 1030.7 1030.7 0.0
23/09:30pm 10.0 6.5 7.3 83 1.3 ESE 15 17 8 9 1030.5 1030.5 0.0
23/09:00pm 10.0 6.5 7.1 82 1.4 E 15 19 8 10 1030.4 1030.4 0.0
23/08:30pm 10.1 6.1 6.8 80 1.6 E 17 19 9 10 1030.3 1030.3 0.0
23/08:00pm 10.4 6.7 6.4 76 1.9 E 15 17 8 9 1030.3 1030.3 0.0
23/07:30pm 9.7 6.0 6.1 78 1.7 E 15 17 8 9 1030.2 1030.2 0.0
23/07:00pm 9.7 6.7 5.9 77 1.7 E 11 13 6 7 1030.1 1030.1 0.0
23/06:30pm 10.1 7.8 5.9 75 1.9 ENE 7 11 4 6 1029.9 1029.9 0.0
23/06:00pm 11.7 10.6 5.1 64 3.0 CALM 0 0 0 0 1029.8 1029.8 0.0
23/05:30pm 11.9 10.5 5.5 65 3.0 NNW 2 4 1 2 1029.7 1029.7 0.0
23/05:00pm 12.5 11.6 6.1 65 3.0 CALM 0 0 0 0 1029.7 1029.7 0.0
23/04:30pm 12.6 11.7 6.0 64 3.1 CALM 0 0 0 0 1029.6 1029.6 0.0
23/04:00pm 13.8 12.7 7.1 64 3.2 NNW 2 4 1 2 1029.6 1029.6 0.0

Other formats

Comma delimited format used in spreadsheet applications
http://www.bom.gov.au/fwo/IDT60801/IDT60801.94974.axf

JavaScript Object Notation format (JSON) in row-major order
http://www.bom.gov.au/fwo/IDT60801/IDT60801.94974.json

Data quality

Most of these data are generated automatically and are frequently updated. Quality checks on data are not normally performed. It is possible for incorrect values to appear. Refer to information at About Latest Weather Observations and please check the disclaimer before using these data.